NCAR-RAP Real-Time Weather Data

Output produced by METARs form (16 August 2018  19:23 UTC)
found at http://weather.rap.ucar.edu/surface/
 
RJCH 161100Z 11027KT 6000 -SHRA FEW004 BKN008 BKN010 17/17 Q0997
RJCH 161014Z 11024KT 5000 -SHRA BR FEW004 BKN007 BKN012 18/17 Q0998 RMK 1ST004 5ST007 7ST012 A2947
RJCH 161006Z 11019G29KT 4500 -SHRA BR FEW003 BKN007 BKN010 18/17 Q0998 RMK 1ST003 5ST007 7ST010 A2948
RJCH 161000Z 10017KT 3200 -SHRA BR FEW003 BKN006 BKN009 18/17 Q0998
RJCH 160931Z 09013KT 3100 -SHRA BR FEW003 BKN007 BKN010 18/17 Q0998 RMK 1ST003 6ST007 7ST010 A2948
RJCH 160928Z 10015KT 4900 -SHRA BR FEW003 BKN009 BKN012 18/17 Q0998 RMK 1ST003 6ST009 7ST012 A2948
RJCH 160900Z 08009KT 9999 FEW004 BKN010 BKN015 18/17 Q0998
RJCH 160800Z 03004KT 360V080 9999 FEW005 BKN012 BKN060 18/17 Q0998
RJCH 160720Z 08011KT 9999 -SHRA FEW007 SCT015 BKN070 18/17 Q0997 RMK 1ST007 3ST015 7AC070 A2946
RJCH 160712Z 02004KT 320V060 9999 -SHRA FEW007 SCT015 BKN070 18/17 Q0998 RMK 1ST007 3ST015 7AC070 A2948
RJCH 160700Z 06014KT 9999 -SHRA FEW007 SCT015 BKN040 18/17 Q0997
RJCH 160624Z 01004KT 310V070 5000 -SHRA BR FEW005 SCT008 BKN012 18/18 Q0999 RMK 2ST005 4ST008 7ST012 A2951
RJCH 160605Z 34005KT 3200 SHRA BR FEW003 BKN008 BKN012 18/18 Q0999 RMK 2ST003 5ST008 7ST012 A2950
RJCH 160600Z 35003KT 310V050 3000 +SHRA BR FEW003 BKN008 BKN012 18/18 Q0999
RJCH 160537Z 04003KT 350V110 3500 SHRA BR FEW003 BKN007 BKN010 18/18 Q0999 RMK 2ST003 5ST007 7ST010 A2950
RJCH 160500Z 10010KT 3500 SHRA BR FEW003 BKN008 BKN010 18/18 Q0999
RJCH 160443Z 09010KT 4900 SHRA BR FEW003 BKN008 BKN010 18/18 Q0999 RMK 2ST003 5ST008 7ST010 A2952
RJCH 160432Z 09011KT 5000 -SHRA BR FEW003 BKN008 BKN010 18/18 Q1000 RMK 2ST003 5ST008 7ST010 A2953
RJCH 160409Z 10013KT 4900 R12/2000N SHRA BR FEW003 SCT007 BKN010 18/18 Q1000 RMK 2ST003 4ST007 7ST010 A2953
RJCH 160400Z 09012KT 5000 -SHRA BR FEW003 SCT007 BKN010 19/18 Q1000
RJCH 160300Z 10012KT 5000 -SHRA BR FEW002 SCT006 BKN010 19/18 Q1001
RJCH 160233Z 09008KT 5000 -SHRA BR FEW003 SCT007 BKN012 18/18 Q1002 RMK 2ST003 4ST007 7ST012 A2960
RJCH 160222Z 08010KT 4900 SHRA BR SCT002 BKN007 BKN010 18/18 Q1002 RMK 3ST002 5ST007 7ST010 A2961
RJCH 160200Z 10011KT 8000 -SHRA FEW003 SCT007 BKN012 19/18 Q1003
RJCH 160126Z 10014KT 5000 -SHRA BR FEW004 SCT008 BKN012 18/18 Q1003 RMK 2ST004 4ST008 7ST012 A2962
RJCH 160122Z 11014KT 3200 SHRA BR FEW003 BKN008 BKN012 19/18 Q1003 RMK 2ST003 5ST008 7ST012 A2963
RJCH 160109Z 10011KT 3000 SHRA BR SCT002 BKN008 BKN012 19/18 Q1003 RMK 3ST002 5ST008 7ST012 A2963
RJCH 160102Z 10012KT 3100 -SHRA BR SCT002 BKN007 BKN012 19/18 Q1003 RMK 3ST002 5ST007 7ST012 A2963
RJCH 160100Z 10012KT 3500 -SHRA BR SCT002 BKN007 BKN012 19/18 Q1003
RJCH 160048Z 10013KT 4900 -SHRA BR SCT002 BKN007 BKN010 19/18 Q1003 RMK 3ST002 5ST007 7ST010 A2964
RJCH 160000Z 09009KT 5000 -SHRA BR FEW003 BKN008 BKN012 19/18 Q1003
RJCH 152328Z 09008KT 5000 -SHRA BR FEW004 BKN008 BKN012 19/18 Q1004 RMK 2ST004 5ST008 7ST012 A2966
RJCH 152326Z 09008KT 3200 -SHRA BR SCT004 BKN008 BKN012 19/18 Q1004 RMK 3ST004 5ST008 7ST012 A2966
RJCH 152324Z 08008KT 2400 -SHRA BR SCT003 BKN007 BKN012 19/18 Q1004 RMK 3ST003 5ST007 7ST012 A2966
RJCH 152306Z 08008KT 2300 R12/2000N -SHRA BR SCT002 BKN006 BKN010 19/18 Q1004 RMK 3ST002 5ST006 7ST010 A2966
RJCH 152300Z 08008KT 2500 -SHRA BR SCT002 BKN007 BKN010 19/18 Q1004
RJCH 152209Z 08008KT 3100 R12/2000N -SHRA BR SCT003 BKN007 BKN010 19/18 Q1004 RMK 3ST003 5ST007 7ST010 A2967
RJCH 152200Z 08008KT 3500 -SHRA BR SCT004 BKN007 BKN010 19/18 Q1005
RJCH 152147Z 07007KT 3200 -SHRA BR SCT003 BKN007 BKN010 19/18 Q1005 RMK 3ST003 5ST007 7ST010 A2968
RJCH 152110Z 08008KT 2500 R12/2000N -SHRA BR SCT002 BKN007 BKN010 18/18 Q1005 RMK 3ST002 5ST007 7ST010 A2969
RJCH 151100Z 05003KT 350V100 9999 FEW002 SCT010 BKN060 21/21 Q1009
RJCH 151014Z 04003KT 360V070 9999 FEW002 SCT004 BKN012 21/21 Q1009 RMK 1ST002 4ST004 7ST012 A2980
RJCH 151000Z 07003KT 020V110 9999 FEW002 BKN004 BKN012 22/21 Q1009
RJCH 150926Z 08002KT 8000 FEW002 BKN004 BKN012 22/21 Q1009 RMK 1ST002 5ST004 7ST012 A2981
RJCH 150900Z 12005KT 8000 FEW003 BKN012 BKN025 22/21 Q1009
RJCH 150843Z 12005KT 7000 FEW001 SCT003 BKN012 22/21 Q1009 RMK 1ST001 4ST003 7ST012 A2981
RJCH 150800Z 12010KT 6000 FEW001 BKN003 BKN012 22/21 Q1009
RJCH 150700Z 13009KT 7000 FEW002 BKN004 BKN015 22/22 Q1009
RJCH 150644Z 14010KT 9999 -SHRA FEW002 BKN004 BKN015 22/21 Q1010 RMK 1ST002 5ST004 7ST015 A2982
RJCH 150600Z 18005KT 9999 FEW004 BKN010 BKN020 23/21 Q1010
RJCH 150528Z VRB02KT 9999 FEW003 BKN015 BKN020 23/21 Q1010 RMK 2ST003 5ST015 7CU020 A2983
RJCH 150500Z 13006KT 8000 FEW003 BKN009 BKN018 22/21 Q1010
RJCH 150417Z 16005KT 7000 FEW003 BKN008 BKN015 22/22 Q1010 RMK 1ST003 5ST008 7ST015 A2984
RJCH 150406Z 15006KT 9999 FEW003 BKN005 BKN015 22/22 Q1010 RMK 1ST003 5ST005 7ST015 A2984
RJCH 150400Z 14006KT 9999 FEW005 SCT012 BKN015 23/22 Q1010
RJCH 150300Z 17005KT 9999 FEW012 SCT015 BKN018 23/21 Q1010
RJCH 150200Z VRB01KT 9999 FEW008 SCT012 BKN020 24/22 Q1010
RJCH 150100Z VRB01KT 9999 PRFG -SHRA FEW001 BKN010 BKN020 22/21 Q1011
RJCH 150048Z VRB02KT 9999 -SHRA FEW002 SCT006 BKN012 22/21 Q1012 RMK 2ST002 4ST006 7ST012 A2989
RJCH 150038Z VRB03KT 5000 -SHRA BCFG BR FEW001 BKN004 BKN008 22/21 Q1012 RMK 2ST001 5ST004 7ST008 A2990
RJCH 150000Z 14006KT 9999 FEW007 SCT030 BKN035 22/21 Q1011
RJCH 142300Z 16002KT 9999 FEW003 BKN025 BKN120 22/21 Q1011
RJCH 142200Z VRB01KT 9999 PRFG FEW001 BKN060 BKN090 22/21 Q1012
RJCH 142134Z VRB01KT 5000 -SHRA BCFG BR FEW001 SCT002 BKN060 21/21 Q1011 RMK 1ST001 3ST002 7CU060 A2988
RJCH 142110Z 08003KT 050V110 4500 -SHRA BCFG BR FEW001 SCT002 BKN070 21/21 Q1011 RMK 1ST001 4ST002 7AC070 A2987
RJCH 141100Z 03003KT 9999 FEW006 SCT030 BKN045 23/22 Q1010
RJCH 141000Z 02003KT 350V060 9999 FEW007 SCT018 BKN040 23/22 Q1010
RJCH 140900Z VRB03KT 9999 FEW007 SCT012 BKN030 23/22 Q1010
RJCH 140800Z 08003KT 350V130 9999 -SHRA FEW004 SCT007 BKN012 23/22 Q1010
RJCH 140740Z VRB02KT 8000 -SHRA FEW003 SCT007 BKN010 23/21 Q1010 RMK 1ST003 4ST007 7ST010 A2984